sensor_id;sensor_type;location;lat;lon;timestamp;P1;durP1;ratioP1;P2;durP2;ratioP2
68365;SDS011;55283;51.466;5.478;2023-05-07T00:00:48;1.30;;;1.20;;
68365;SDS011;55283;51.466;5.478;2023-05-07T00:03:16;1.52;;;1.20;;
68365;SDS011;55283;51.466;5.478;2023-05-07T00:05:41;1.30;;;1.20;;
68365;SDS011;55283;51.466;5.478;2023-05-07T00:08:09;1.40;;;1.20;;
68365;SDS011;55283;51.466;5.478;2023-05-07T00:10:35;2.00;;;1.30;;
68365;SDS011;55283;51.466;5.478;2023-05-07T00:13:00;0.93;;;0.90;;
68365;SDS011;55283;51.466;5.478;2023-05-07T00:15:26;1.30;;;1.20;;
68365;SDS011;55283;51.466;5.478;2023-05-07T00:17:51;1.50;;;1.10;;
68365;SDS011;55283;51.466;5.478;2023-05-07T00:20:17;1.70;;;1.10;;
68365;SDS011;55283;51.466;5.478;2023-05-07T00:22:43;2.23;;;1.10;;
68365;SDS011;55283;51.466;5.478;2023-05-07T00:25:13;1.47;;;1.10;;
68365;SDS011;55283;51.466;5.478;2023-05-07T00:27:38;1.30;;;1.20;;
68365;SDS011;55283;51.466;5.478;2023-05-07T00:30:04;1.10;;;1.00;;
68365;SDS011;55283;51.466;5.478;2023-05-07T00:32:30;1.63;;;1.13;;
68365;SDS011;55283;51.466;5.478;2023-05-07T00:34:58;1.85;;;1.10;;
68365;SDS011;55283;51.466;5.478;2023-05-07T00:37:23;1.60;;;1.13;;
68365;SDS011;55283;51.466;5.478;2023-05-07T00:39:51;1.37;;;1.20;;
68365;SDS011;55283;51.466;5.478;2023-05-07T00:42:16;1.27;;;1.02;;
68365;SDS011;55283;51.466;5.478;2023-05-07T00:44:42;1.40;;;1.00;;
68365;SDS011;55283;51.466;5.478;2023-05-07T00:47:07;1.70;;;1.20;;
68365;SDS011;55283;51.466;5.478;2023-05-07T00:49:39;1.20;;;1.10;;
68365;SDS011;55283;51.466;5.478;2023-05-07T00:52:13;1.25;;;1.15;;
68365;SDS011;55283;51.466;5.478;2023-05-07T00:54:40;1.35;;;1.25;;
68365;SDS011;55283;51.466;5.478;2023-05-07T00:57:07;1.40;;;1.13;;
68365;SDS011;55283;51.466;5.478;2023-05-07T00:59:34;1.27;;;1.10;;
68365;SDS011;55283;51.466;5.478;2023-05-07T01:02:00;1.48;;;1.10;;
68365;SDS011;55283;51.466;5.478;2023-05-07T01:04:26;1.20;;;1.10;;
68365;SDS011;55283;51.466;5.478;2023-05-07T01:06:52;1.47;;;1.00;;
68365;SDS011;55283;51.466;5.478;2023-05-07T01:09:20;1.40;;;1.10;;
68365;SDS011;55283;51.466;5.478;2023-05-07T01:11:47;1.75;;;1.10;;
68365;SDS011;55283;51.466;5.478;2023-05-07T01:14:14;1.33;;;1.23;;
68365;SDS011;55283;51.466;5.478;2023-05-07T01:16:39;1.13;;;1.00;;
68365;SDS011;55283;51.466;5.478;2023-05-07T01:19:07;1.13;;;0.90;;
68365;SDS011;55283;51.466;5.478;2023-05-07T01:21:33;1.20;;;1.00;;
68365;SDS011;55283;51.466;5.478;2023-05-07T01:24:04;1.30;;;1.20;;
68365;SDS011;55283;51.466;5.478;2023-05-07T01:26:30;2.30;;;1.30;;
68365;SDS011;55283;51.466;5.478;2023-05-07T01:28:55;1.33;;;1.23;;
68365;SDS011;55283;51.466;5.478;2023-05-07T01:31:21;1.10;;;1.00;;
68365;SDS011;55283;51.466;5.478;2023-05-07T01:33:49;1.10;;;1.00;;
68365;SDS011;55283;51.466;5.478;2023-05-07T01:36:15;1.35;;;1.10;;
68365;SDS011;55283;51.466;5.478;2023-05-07T01:38:46;1.20;;;1.10;;
68365;SDS011;55283;51.466;5.478;2023-05-07T01:41:12;1.13;;;1.03;;
68365;SDS011;55283;51.466;5.478;2023-05-07T01:43:38;1.13;;;1.02;;
68365;SDS011;55283;51.466;5.478;2023-05-07T01:46:06;1.35;;;1.15;;
68365;SDS011;55283;51.466;5.478;2023-05-07T01:48:34;1.67;;;1.07;;
68365;SDS011;55283;51.466;5.478;2023-05-07T01:51:03;1.13;;;1.02;;
68365;SDS011;55283;51.466;5.478;2023-05-07T01:53:35;1.67;;;1.20;;
68365;SDS011;55283;51.466;5.478;2023-05-07T01:56:01;1.63;;;1.17;;
68365;SDS011;55283;51.466;5.478;2023-05-07T01:58:26;1.93;;;1.20;;
68365;SDS011;55283;51.466;5.478;2023-05-07T02:00:52;1.20;;;1.10;;
68365;SDS011;55283;51.466;5.478;2023-05-07T02:03:17;1.47;;;1.23;;
68365;SDS011;55283;51.466;5.478;2023-05-07T02:05:45;1.10;;;1.00;;
68365;SDS011;55283;51.466;5.478;2023-05-07T02:08:13;1.33;;;1.17;;
68365;SDS011;55283;51.466;5.478;2023-05-07T02:10:38;1.17;;;1.08;;
68365;SDS011;55283;51.466;5.478;2023-05-07T02:13:04;2.20;;;1.17;;
68365;SDS011;55283;51.466;5.478;2023-05-07T02:15:32;1.20;;;1.10;;
68365;SDS011;55283;51.466;5.478;2023-05-07T02:18:03;1.50;;;1.40;;
68365;SDS011;55283;51.466;5.478;2023-05-07T02:20:29;1.50;;;1.25;;
68365;SDS011;55283;51.466;5.478;2023-05-07T02:23:01;1.30;;;1.20;;
68365;SDS011;55283;51.466;5.478;2023-05-07T02:25:27;1.38;;;1.10;;
68365;SDS011;55283;51.466;5.478;2023-05-07T02:27:52;1.40;;;1.20;;
68365;SDS011;55283;51.466;5.478;2023-05-07T02:30:18;1.30;;;1.20;;
68365;SDS011;55283;51.466;5.478;2023-05-07T02:32:43;2.40;;;1.10;;
68365;SDS011;55283;51.466;5.478;2023-05-07T02:35:09;1.30;;;1.20;;
68365;SDS011;55283;51.466;5.478;2023-05-07T02:37:34;1.33;;;1.20;;
68365;SDS011;55283;51.466;5.478;2023-05-07T02:40:00;1.40;;;1.20;;
68365;SDS011;55283;51.466;5.478;2023-05-07T02:42:25;1.30;;;1.20;;
68365;SDS011;55283;51.466;5.478;2023-05-07T02:44:51;1.30;;;1.10;;
68365;SDS011;55283;51.466;5.478;2023-05-07T02:47:16;1.53;;;1.10;;
68365;SDS011;55283;51.466;5.478;2023-05-07T02:49:42;1.20;;;1.10;;
68365;SDS011;55283;51.466;5.478;2023-05-07T02:52:07;1.48;;;1.25;;
68365;SDS011;55283;51.466;5.478;2023-05-07T02:54:35;1.33;;;1.13;;
68365;SDS011;55283;51.466;5.478;2023-05-07T02:57:01;1.30;;;1.20;;
68365;SDS011;55283;51.466;5.478;2023-05-07T02:59:27;1.60;;;1.20;;
68365;SDS011;55283;51.466;5.478;2023-05-07T03:01:55;1.33;;;1.10;;
68365;SDS011;55283;51.466;5.478;2023-05-07T03:04:20;1.30;;;1.20;;
68365;SDS011;55283;51.466;5.478;2023-05-07T03:06:46;1.20;;;1.10;;
68365;SDS011;55283;51.466;5.478;2023-05-07T03:09:11;1.20;;;1.10;;
68365;SDS011;55283;51.466;5.478;2023-05-07T03:11:37;1.63;;;1.47;;
68365;SDS011;55283;51.466;5.478;2023-05-07T03:14:02;1.50;;;1.40;;
68365;SDS011;55283;51.466;5.478;2023-05-07T03:16:30;2.10;;;1.20;;
68365;SDS011;55283;51.466;5.478;2023-05-07T03:18:55;1.50;;;1.20;;
68365;SDS011;55283;51.466;5.478;2023-05-07T03:21:20;1.73;;;1.13;;
68365;SDS011;55283;51.466;5.478;2023-05-07T03:23:46;1.50;;;1.20;;
68365;SDS011;55283;51.466;5.478;2023-05-07T03:26:11;1.40;;;1.30;;
68365;SDS011;55283;51.466;5.478;2023-05-07T03:28:38;1.40;;;1.20;;
68365;SDS011;55283;51.466;5.478;2023-05-07T03:31:03;1.73;;;1.13;;
68365;SDS011;55283;51.466;5.478;2023-05-07T03:33:30;1.10;;;1.00;;
68365;SDS011;55283;51.466;5.478;2023-05-07T03:36:00;1.40;;;1.30;;
68365;SDS011;55283;51.466;5.478;2023-05-07T03:38:26;2.42;;;1.20;;
68365;SDS011;55283;51.466;5.478;2023-05-07T03:40:54;1.30;;;1.20;;
68365;SDS011;55283;51.466;5.478;2023-05-07T03:43:19;4.03;;;1.00;;
68365;SDS011;55283;51.466;5.478;2023-05-07T03:45:45;1.20;;;1.10;;
68365;SDS011;55283;51.466;5.478;2023-05-07T03:48:10;1.27;;;1.10;;
68365;SDS011;55283;51.466;5.478;2023-05-07T03:50:36;1.53;;;1.10;;
68365;SDS011;55283;51.466;5.478;2023-05-07T03:53:01;1.23;;;1.10;;
68365;SDS011;55283;51.466;5.478;2023-05-07T03:55:26;1.60;;;1.20;;
68365;SDS011;55283;51.466;5.478;2023-05-07T03:57:52;1.20;;;1.10;;
68365;SDS011;55283;51.466;5.478;2023-05-07T04:00:17;1.77;;;1.20;;
68365;SDS011;55283;51.466;5.478;2023-05-07T04:02:45;1.70;;;1.15;;
68365;SDS011;55283;51.466;5.478;2023-05-07T04:05:10;1.80;;;1.03;;
68365;SDS011;55283;51.466;5.478;2023-05-07T04:07:35;1.20;;;1.10;;
68365;SDS011;55283;51.466;5.478;2023-05-07T04:10:01;1.30;;;1.20;;
68365;SDS011;55283;51.466;5.478;2023-05-07T04:12:27;1.30;;;1.20;;
68365;SDS011;55283;51.466;5.478;2023-05-07T04:14:55;1.42;;;1.13;;
68365;SDS011;55283;51.466;5.478;2023-05-07T04:17:23;1.93;;;1.30;;
68365;SDS011;55283;51.466;5.478;2023-05-07T04:19:48;1.52;;;1.00;;
68365;SDS011;55283;51.466;5.478;2023-05-07T04:22:14;1.47;;;1.27;;
68365;SDS011;55283;51.466;5.478;2023-05-07T04:24:39;1.37;;;1.10;;
68365;SDS011;55283;51.466;5.478;2023-05-07T04:27:05;1.40;;;1.20;;
68365;SDS011;55283;51.466;5.478;2023-05-07T04:29:31;1.40;;;1.10;;
68365;SDS011;55283;51.466;5.478;2023-05-07T04:31:56;1.40;;;1.30;;
68365;SDS011;55283;51.466;5.478;2023-05-07T04:34:23;1.95;;;1.10;;
68365;SDS011;55283;51.466;5.478;2023-05-07T04:36:49;1.83;;;1.10;;
68365;SDS011;55283;51.466;5.478;2023-05-07T04:39:14;2.00;;;1.30;;
68365;SDS011;55283;51.466;5.478;2023-05-07T04:41:40;4.63;;;3.07;;
68365;SDS011;55283;51.466;5.478;2023-05-07T04:44:05;6.90;;;4.67;;
68365;SDS011;55283;51.466;5.478;2023-05-07T04:46:30;7.63;;;5.70;;
68365;SDS011;55283;51.466;5.478;2023-05-07T04:48:56;9.63;;;5.67;;
68365;SDS011;55283;51.466;5.478;2023-05-07T04:51:21;9.93;;;6.37;;
68365;SDS011;55283;51.466;5.478;2023-05-07T04:53:52;10.07;;;6.70;;
68365;SDS011;55283;51.466;5.478;2023-05-07T04:56:17;8.68;;;7.18;;
68365;SDS011;55283;51.466;5.478;2023-05-07T04:58:43;8.00;;;7.20;;
68365;SDS011;55283;51.466;5.478;2023-05-07T05:01:08;8.10;;;6.63;;
68365;SDS011;55283;51.466;5.478;2023-05-07T05:03:33;9.67;;;6.50;;
68365;SDS011;55283;51.466;5.478;2023-05-07T05:05:59;8.57;;;6.70;;
68365;SDS011;55283;51.466;5.478;2023-05-07T05:08:24;7.57;;;6.60;;
68365;SDS011;55283;51.466;5.478;2023-05-07T05:10:50;8.73;;;6.75;;
68365;SDS011;55283;51.466;5.478;2023-05-07T05:13:16;7.63;;;5.67;;
68365;SDS011;55283;51.466;5.478;2023-05-07T05:15:41;7.07;;;5.97;;
68365;SDS011;55283;51.466;5.478;2023-05-07T05:18:09;7.17;;;5.70;;
68365;SDS011;55283;51.466;5.478;2023-05-07T05:20:34;8.63;;;5.60;;
68365;SDS011;55283;51.466;5.478;2023-05-07T05:23:00;7.78;;;4.90;;
68365;SDS011;55283;51.466;5.478;2023-05-07T05:25:25;7.20;;;4.77;;
68365;SDS011;55283;51.466;5.478;2023-05-07T05:27:51;12.03;;;5.10;;
68365;SDS011;55283;51.466;5.478;2023-05-07T05:30:16;8.80;;;4.70;;
68365;SDS011;55283;51.466;5.478;2023-05-07T05:32:41;10.30;;;5.22;;
68365;SDS011;55283;51.466;5.478;2023-05-07T05:35:07;8.70;;;6.30;;
68365;SDS011;55283;51.466;5.478;2023-05-07T05:37:35;14.45;;;7.30;;
68365;SDS011;55283;51.466;5.478;2023-05-07T05:40:03;13.93;;;7.70;;
68365;SDS011;55283;51.466;5.478;2023-05-07T05:42:29;9.48;;;7.80;;
68365;SDS011;55283;51.466;5.478;2023-05-07T05:44:55;10.77;;;7.90;;
68365;SDS011;55283;51.466;5.478;2023-05-07T05:47:20;8.67;;;6.53;;
68365;SDS011;55283;51.466;5.478;2023-05-07T05:49:45;7.85;;;6.20;;
68365;SDS011;55283;51.466;5.478;2023-05-07T05:52:11;8.37;;;5.90;;
68365;SDS011;55283;51.466;5.478;2023-05-07T05:54:39;7.07;;;5.30;;
68365;SDS011;55283;51.466;5.478;2023-05-07T05:57:07;7.47;;;5.63;;
68365;SDS011;55283;51.466;5.478;2023-05-07T05:59:35;7.97;;;5.10;;
68365;SDS011;55283;51.466;5.478;2023-05-07T06:02:03;7.03;;;4.73;;
68365;SDS011;55283;51.466;5.478;2023-05-07T06:04:30;5.90;;;4.70;;
68365;SDS011;55283;51.466;5.478;2023-05-07T06:06:56;7.27;;;4.30;;
68365;SDS011;55283;51.466;5.478;2023-05-07T06:09:27;6.35;;;4.50;;
68365;SDS011;55283;51.466;5.478;2023-05-07T06:11:52;6.33;;;4.33;;
68365;SDS011;55283;51.466;5.478;2023-05-07T06:14:18;6.40;;;4.13;;
68365;SDS011;55283;51.466;5.478;2023-05-07T06:16:43;5.20;;;4.10;;
68365;SDS011;55283;51.466;5.478;2023-05-07T06:19:11;5.20;;;3.70;;
68365;SDS011;55283;51.466;5.478;2023-05-07T06:21:42;6.65;;;3.80;;
68365;SDS011;55283;51.466;5.478;2023-05-07T06:24:07;4.10;;;3.60;;
68365;SDS011;55283;51.466;5.478;2023-05-07T06:26:35;5.33;;;3.60;;
68365;SDS011;55283;51.466;5.478;2023-05-07T06:29:01;6.95;;;3.65;;
68365;SDS011;55283;51.466;5.478;2023-05-07T06:31:29;4.33;;;3.50;;
68365;SDS011;55283;51.466;5.478;2023-05-07T06:33:58;5.10;;;3.65;;
68365;SDS011;55283;51.466;5.478;2023-05-07T06:36:24;5.93;;;3.70;;
68365;SDS011;55283;51.466;5.478;2023-05-07T06:38:52;4.65;;;3.40;;
68365;SDS011;55283;51.466;5.478;2023-05-07T06:41:17;4.10;;;3.10;;
68365;SDS011;55283;51.466;5.478;2023-05-07T06:43:43;4.33;;;3.00;;
68365;SDS011;55283;51.466;5.478;2023-05-07T06:46:08;5.03;;;3.33;;
68365;SDS011;55283;51.466;5.478;2023-05-07T06:48:33;4.53;;;3.13;;
68365;SDS011;55283;51.466;5.478;2023-05-07T06:51:02;4.60;;;3.47;;
68365;SDS011;55283;51.466;5.478;2023-05-07T06:53:29;3.97;;;2.90;;
68365;SDS011;55283;51.466;5.478;2023-05-07T06:55:55;3.42;;;3.05;;
68365;SDS011;55283;51.466;5.478;2023-05-07T06:58:21;3.58;;;2.83;;
68365;SDS011;55283;51.466;5.478;2023-05-07T07:00:47;5.37;;;3.30;;
68365;SDS011;55283;51.466;5.478;2023-05-07T07:03:15;4.47;;;3.03;;
68365;SDS011;55283;51.466;5.478;2023-05-07T07:05:46;4.23;;;3.30;;
68365;SDS011;55283;51.466;5.478;2023-05-07T07:08:18;3.88;;;3.05;;
68365;SDS011;55283;51.466;5.478;2023-05-07T07:10:43;5.37;;;3.20;;
68365;SDS011;55283;51.466;5.478;2023-05-07T07:13:08;4.60;;;3.00;;
68365;SDS011;55283;51.466;5.478;2023-05-07T07:15:34;4.30;;;3.20;;
68365;SDS011;55283;51.466;5.478;2023-05-07T07:18:04;4.33;;;3.23;;
68365;SDS011;55283;51.466;5.478;2023-05-07T07:20:33;3.97;;;3.08;;
68365;SDS011;55283;51.466;5.478;2023-05-07T07:22:58;3.78;;;2.92;;
68365;SDS011;55283;51.466;5.478;2023-05-07T07:25:24;3.53;;;3.20;;
68365;SDS011;55283;51.466;5.478;2023-05-07T07:27:53;3.45;;;2.85;;
68365;SDS011;55283;51.466;5.478;2023-05-07T07:30:18;3.77;;;2.77;;
68365;SDS011;55283;51.466;5.478;2023-05-07T07:32:43;4.18;;;2.80;;
68365;SDS011;55283;51.466;5.478;2023-05-07T07:35:12;3.20;;;2.90;;
68365;SDS011;55283;51.466;5.478;2023-05-07T07:37:37;4.18;;;2.80;;
68365;SDS011;55283;51.466;5.478;2023-05-07T07:40:03;5.40;;;3.03;;
68365;SDS011;55283;51.466;5.478;2023-05-07T07:42:28;3.90;;;2.80;;
68365;SDS011;55283;51.466;5.478;2023-05-07T07:44:54;4.68;;;3.13;;
68365;SDS011;55283;51.466;5.478;2023-05-07T07:47:20;3.67;;;2.80;;
68365;SDS011;55283;51.466;5.478;2023-05-07T07:49:45;3.47;;;2.80;;
68365;SDS011;55283;51.466;5.478;2023-05-07T07:52:11;3.15;;;2.63;;
68365;SDS011;55283;51.466;5.478;2023-05-07T07:54:38;3.90;;;2.90;;
68365;SDS011;55283;51.466;5.478;2023-05-07T07:57:04;3.53;;;2.88;;
68365;SDS011;55283;51.466;5.478;2023-05-07T07:59:30;4.73;;;2.80;;
68365;SDS011;55283;51.466;5.478;2023-05-07T08:01:57;3.45;;;2.80;;
68365;SDS011;55283;51.466;5.478;2023-05-07T08:04:22;3.57;;;2.90;;
68365;SDS011;55283;51.466;5.478;2023-05-07T08:06:48;3.50;;;2.77;;
68365;SDS011;55283;51.466;5.478;2023-05-07T08:09:13;3.83;;;2.90;;
68365;SDS011;55283;51.466;5.478;2023-05-07T08:11:42;3.80;;;2.90;;
68365;SDS011;55283;51.466;5.478;2023-05-07T08:14:07;3.30;;;2.75;;
68365;SDS011;55283;51.466;5.478;2023-05-07T08:16:33;3.47;;;2.60;;
68365;SDS011;55283;51.466;5.478;2023-05-07T08:18:58;3.73;;;2.63;;
68365;SDS011;55283;51.466;5.478;2023-05-07T08:21:29;3.65;;;2.78;;
68365;SDS011;55283;51.466;5.478;2023-05-07T08:23:57;3.95;;;2.97;;
68365;SDS011;55283;51.466;5.478;2023-05-07T08:26:22;4.17;;;2.80;;
68365;SDS011;55283;51.466;5.478;2023-05-07T08:28:50;3.27;;;2.83;;
68365;SDS011;55283;51.466;5.478;2023-05-07T08:31:16;3.42;;;2.90;;
68365;SDS011;55283;51.466;5.478;2023-05-07T08:33:44;3.47;;;2.87;;
68365;SDS011;55283;51.466;5.478;2023-05-07T08:36:09;3.30;;;2.67;;
68365;SDS011;55283;51.466;5.478;2023-05-07T08:38:35;3.43;;;2.90;;
68365;SDS011;55283;51.466;5.478;2023-05-07T08:41:00;3.23;;;2.93;;
68365;SDS011;55283;51.466;5.478;2023-05-07T08:43:26;3.00;;;2.50;;
68365;SDS011;55283;51.466;5.478;2023-05-07T08:45:53;3.08;;;2.55;;
68365;SDS011;55283;51.466;5.478;2023-05-07T08:48:21;3.67;;;2.80;;
68365;SDS011;55283;51.466;5.478;2023-05-07T08:50:50;3.30;;;2.70;;
68365;SDS011;55283;51.466;5.478;2023-05-07T08:53:18;2.78;;;2.45;;
68365;SDS011;55283;51.466;5.478;2023-05-07T08:55:45;3.67;;;2.83;;
68365;SDS011;55283;51.466;5.478;2023-05-07T08:58:12;2.90;;;2.53;;
68365;SDS011;55283;51.466;5.478;2023-05-07T09:00:37;3.00;;;2.60;;
68365;SDS011;55283;51.466;5.478;2023-05-07T09:03:05;3.00;;;2.70;;
68365;SDS011;55283;51.466;5.478;2023-05-07T09:05:30;3.00;;;2.47;;
68365;SDS011;55283;51.466;5.478;2023-05-07T09:07:58;2.80;;;2.50;;
68365;SDS011;55283;51.466;5.478;2023-05-07T09:10:25;3.00;;;2.60;;
68365;SDS011;55283;51.466;5.478;2023-05-07T09:12:51;3.45;;;2.65;;
68365;SDS011;55283;51.466;5.478;2023-05-07T09:15:18;3.33;;;2.70;;
68365;SDS011;55283;51.466;5.478;2023-05-07T09:17:43;2.92;;;2.47;;
68365;SDS011;55283;51.466;5.478;2023-05-07T09:20:11;3.50;;;2.80;;
68365;SDS011;55283;51.466;5.478;2023-05-07T09:22:40;2.87;;;2.33;;
68365;SDS011;55283;51.466;5.478;2023-05-07T09:25:06;3.33;;;2.70;;
68365;SDS011;55283;51.466;5.478;2023-05-07T09:27:32;2.85;;;2.60;;
68365;SDS011;55283;51.466;5.478;2023-05-07T09:29:58;3.03;;;2.40;;
68365;SDS011;55283;51.466;5.478;2023-05-07T09:32:24;2.93;;;2.30;;
68365;SDS011;55283;51.466;5.478;2023-05-07T09:34:52;3.00;;;2.40;;
68365;SDS011;55283;51.466;5.478;2023-05-07T09:37:18;2.97;;;2.30;;
68365;SDS011;55283;51.466;5.478;2023-05-07T09:39:46;3.42;;;2.60;;
68365;SDS011;55283;51.466;5.478;2023-05-07T09:42:15;3.05;;;2.50;;
68365;SDS011;55283;51.466;5.478;2023-05-07T09:44:40;2.97;;;2.53;;
68365;SDS011;55283;51.466;5.478;2023-05-07T09:47:08;2.85;;;2.38;;
68365;SDS011;55283;51.466;5.478;2023-05-07T09:49:35;2.60;;;2.40;;
68365;SDS011;55283;51.466;5.478;2023-05-07T09:52:05;2.95;;;2.50;;
68365;SDS011;55283;51.466;5.478;2023-05-07T09:54:33;3.17;;;2.37;;
68365;SDS011;55283;51.466;5.478;2023-05-07T09:57:04;3.00;;;2.42;;
68365;SDS011;55283;51.466;5.478;2023-05-07T09:59:33;2.50;;;2.20;;
68365;SDS011;55283;51.466;5.478;2023-05-07T10:02:01;3.47;;;2.20;;
68365;SDS011;55283;51.466;5.478;2023-05-07T10:04:35;2.83;;;2.50;;
68365;SDS011;55283;51.466;5.478;2023-05-07T10:07:00;3.00;;;2.30;;
68365;SDS011;55283;51.466;5.478;2023-05-07T10:09:28;3.00;;;2.22;;
68365;SDS011;55283;51.466;5.478;2023-05-07T10:11:54;2.63;;;2.20;;
68365;SDS011;55283;51.466;5.478;2023-05-07T10:14:20;2.63;;;2.13;;
68365;SDS011;55283;51.466;5.478;2023-05-07T10:16:48;2.50;;;2.30;;
68365;SDS011;55283;51.466;5.478;2023-05-07T10:19:14;2.65;;;2.20;;
68365;SDS011;55283;51.466;5.478;2023-05-07T10:21:43;3.10;;;2.20;;
68365;SDS011;55283;51.466;5.478;2023-05-07T10:24:19;2.40;;;2.15;;
68365;SDS011;55283;51.466;5.478;2023-05-07T10:26:48;2.83;;;2.10;;
68365;SDS011;55283;51.466;5.478;2023-05-07T10:35:21;2.97;;;2.55;;
68365;SDS011;55283;51.466;5.478;2023-05-07T10:37:50;2.53;;;2.33;;
68365;SDS011;55283;51.466;5.478;2023-05-07T10:40:16;2.33;;;2.13;;
68365;SDS011;55283;51.466;5.478;2023-05-07T10:42:54;2.45;;;2.10;;
68365;SDS011;55283;51.466;5.478;2023-05-07T10:45:21;2.30;;;2.10;;
68365;SDS011;55283;51.466;5.478;2023-05-07T10:48:20;2.73;;;2.10;;
68365;SDS011;55283;51.466;5.478;2023-05-07T10:50:43;2.42;;;2.22;;
68365;SDS011;55283;51.466;5.478;2023-05-07T10:55:52;2.30;;;2.10;;
68365;SDS011;55283;51.466;5.478;2023-05-07T10:58:48;2.75;;;2.40;;
68365;SDS011;55283;51.466;5.478;2023-05-07T11:01:14;2.60;;;2.40;;
68365;SDS011;55283;51.466;5.478;2023-05-07T11:06:40;2.63;;;2.28;;
68365;SDS011;55283;51.466;5.478;2023-05-07T11:09:05;2.40;;;2.20;;
68365;SDS011;55283;51.466;5.478;2023-05-07T11:11:46;2.53;;;2.33;;
68365;SDS011;55283;51.466;5.478;2023-05-07T11:14:42;2.83;;;2.40;;
68365;SDS011;55283;51.466;5.478;2023-05-07T11:17:09;2.10;;;1.90;;
68365;SDS011;55283;51.466;5.478;2023-05-07T11:19:54;3.17;;;2.40;;
68365;SDS011;55283;51.466;5.478;2023-05-07T11:22:35;2.72;;;2.42;;
68365;SDS011;55283;51.466;5.478;2023-05-07T11:25:05;2.60;;;2.23;;
68365;SDS011;55283;51.466;5.478;2023-05-07T11:27:33;2.35;;;2.13;;
68365;SDS011;55283;51.466;5.478;2023-05-07T11:29:59;3.10;;;2.30;;
68365;SDS011;55283;51.466;5.478;2023-05-07T11:32:29;2.30;;;2.10;;
68365;SDS011;55283;51.466;5.478;2023-05-07T11:34:56;2.15;;;1.95;;
68365;SDS011;55283;51.466;5.478;2023-05-07T11:37:24;2.95;;;2.53;;
68365;SDS011;55283;51.466;5.478;2023-05-07T11:40:02;2.40;;;2.20;;
68365;SDS011;55283;51.466;5.478;2023-05-07T11:42:39;2.53;;;2.33;;
68365;SDS011;55283;51.466;5.478;2023-05-07T11:45:07;2.53;;;2.20;;
68365;SDS011;55283;51.466;5.478;2023-05-07T11:47:34;2.42;;;2.22;;
68365;SDS011;55283;51.466;5.478;2023-05-07T11:50:05;2.50;;;2.30;;
68365;SDS011;55283;51.466;5.478;2023-05-07T11:52:34;2.83;;;2.13;;
68365;SDS011;55283;51.466;5.478;2023-05-07T11:55:00;2.28;;;2.08;;
68365;SDS011;55283;51.466;5.478;2023-05-07T11:57:29;2.43;;;2.10;;
68365;SDS011;55283;51.466;5.478;2023-05-07T11:59:55;2.30;;;2.10;;
68365;SDS011;55283;51.466;5.478;2023-05-07T12:02:25;2.23;;;2.03;;
68365;SDS011;55283;51.466;5.478;2023-05-07T12:04:51;2.25;;;2.05;;
68365;SDS011;55283;51.466;5.478;2023-05-07T12:07:17;2.27;;;2.03;;
68365;SDS011;55283;51.466;5.478;2023-05-07T12:09:45;2.55;;;2.15;;
68365;SDS011;55283;51.466;5.478;2023-05-07T12:12:12;2.53;;;2.10;;
68365;SDS011;55283;51.466;5.478;2023-05-07T12:14:40;2.78;;;2.25;;
68365;SDS011;55283;51.466;5.478;2023-05-07T12:17:10;2.30;;;2.10;;
68365;SDS011;55283;51.466;5.478;2023-05-07T12:19:37;2.60;;;2.00;;
68365;SDS011;55283;51.466;5.478;2023-05-07T12:22:03;2.10;;;1.90;;
68365;SDS011;55283;51.466;5.478;2023-05-07T12:24:42;2.20;;;2.00;;
68365;SDS011;55283;51.466;5.478;2023-05-07T12:27:10;3.20;;;2.20;;
68365;SDS011;55283;51.466;5.478;2023-05-07T12:29:47;2.60;;;2.20;;
68365;SDS011;55283;51.466;5.478;2023-05-07T12:32:19;2.23;;;2.03;;
68365;SDS011;55283;51.466;5.478;2023-05-07T12:34:46;2.58;;;2.10;;
68365;SDS011;55283;51.466;5.478;2023-05-07T12:37:14;2.30;;;2.10;;
68365;SDS011;55283;51.466;5.478;2023-05-07T12:39:48;2.30;;;2.10;;
68365;SDS011;55283;51.466;5.478;2023-05-07T12:42:15;2.20;;;2.00;;
68365;SDS011;55283;51.466;5.478;2023-05-07T12:44:47;2.00;;;1.80;;
68365;SDS011;55283;51.466;5.478;2023-05-07T12:47:15;2.10;;;1.90;;
68365;SDS011;55283;51.466;5.478;2023-05-07T12:49:43;1.90;;;1.80;;
68365;SDS011;55283;51.466;5.478;2023-05-07T12:52:10;2.27;;;1.97;;
68365;SDS011;55283;51.466;5.478;2023-05-07T12:54:37;2.20;;;2.00;;
68365;SDS011;55283;51.466;5.478;2023-05-07T12:57:07;2.15;;;1.95;;
68365;SDS011;55283;51.466;5.478;2023-05-07T12:59:39;2.20;;;2.00;;
68365;SDS011;55283;51.466;5.478;2023-05-07T13:02:06;2.00;;;1.90;;
68365;SDS011;55283;51.466;5.478;2023-05-07T13:04:36;2.30;;;2.10;;
68365;SDS011;55283;51.466;5.478;2023-05-07T13:07:01;2.17;;;1.90;;
68365;SDS011;55283;51.466;5.478;2023-05-07T13:09:29;2.10;;;1.90;;
68365;SDS011;55283;51.466;5.478;2023-05-07T13:12:00;2.00;;;1.90;;
68365;SDS011;55283;51.466;5.478;2023-05-07T13:14:26;2.28;;;2.08;;
68365;SDS011;55283;51.466;5.478;2023-05-07T13:16:51;2.47;;;1.90;;
68365;SDS011;55283;51.466;5.478;2023-05-07T13:19:17;2.27;;;2.07;;
68365;SDS011;55283;51.466;5.478;2023-05-07T13:21:42;2.43;;;2.17;;
68365;SDS011;55283;51.466;5.478;2023-05-07T13:24:08;2.20;;;2.00;;
68365;SDS011;55283;51.466;5.478;2023-05-07T13:26:33;2.08;;;1.88;;
68365;SDS011;55283;51.466;5.478;2023-05-07T13:28:58;2.20;;;2.00;;
68365;SDS011;55283;51.466;5.478;2023-05-07T13:31:24;2.00;;;1.80;;
68365;SDS011;55283;51.466;5.478;2023-05-07T13:33:50;2.10;;;1.90;;
68365;SDS011;55283;51.466;5.478;2023-05-07T13:36:18;2.37;;;2.10;;
68365;SDS011;55283;51.466;5.478;2023-05-07T13:38:43;2.60;;;1.90;;
68365;SDS011;55283;51.466;5.478;2023-05-07T13:41:09;2.23;;;2.03;;
68365;SDS011;55283;51.466;5.478;2023-05-07T13:43:34;2.10;;;1.90;;
68365;SDS011;55283;51.466;5.478;2023-05-07T13:46:00;2.23;;;1.87;;
68365;SDS011;55283;51.466;5.478;2023-05-07T13:48:26;2.20;;;2.00;;
68365;SDS011;55283;51.466;5.478;2023-05-07T13:50:51;2.00;;;1.80;;
68365;SDS011;55283;51.466;5.478;2023-05-07T13:53:17;2.15;;;1.80;;
68365;SDS011;55283;51.466;5.478;2023-05-07T13:55:43;1.80;;;1.70;;
68365;SDS011;55283;51.466;5.478;2023-05-07T13:58:09;1.90;;;1.80;;
68365;SDS011;55283;51.466;5.478;2023-05-07T14:00:34;2.00;;;1.80;;
68365;SDS011;55283;51.466;5.478;2023-05-07T14:03:04;2.20;;;2.00;;
68365;SDS011;55283;51.466;5.478;2023-05-07T14:05:29;2.10;;;1.90;;
68365;SDS011;55283;51.466;5.478;2023-05-07T14:07:58;2.10;;;1.83;;
68365;SDS011;55283;51.466;5.478;2023-05-07T14:10:25;2.33;;;2.13;;
68365;SDS011;55283;51.466;5.478;2023-05-07T14:12:51;2.10;;;1.90;;
68365;SDS011;55283;51.466;5.478;2023-05-07T14:15:17;2.67;;;1.93;;
68365;SDS011;55283;51.466;5.478;2023-05-07T14:17:43;1.70;;;1.60;;
68365;SDS011;55283;51.466;5.478;2023-05-07T14:20:11;2.05;;;1.88;;
68365;SDS011;55283;51.466;5.478;2023-05-07T14:22:40;1.90;;;1.80;;
68365;SDS011;55283;51.466;5.478;2023-05-07T14:25:11;2.20;;;2.00;;
68365;SDS011;55283;51.466;5.478;2023-05-07T14:27:36;1.70;;;1.60;;
68365;SDS011;55283;51.466;5.478;2023-05-07T14:30:02;2.17;;;1.97;;
68365;SDS011;55283;51.466;5.478;2023-05-07T14:32:30;2.10;;;1.80;;
68365;SDS011;55283;51.466;5.478;2023-05-07T14:34:56;2.00;;;1.90;;
68365;SDS011;55283;51.466;5.478;2023-05-07T14:37:22;1.90;;;1.80;;
68365;SDS011;55283;51.466;5.478;2023-05-07T14:39:53;2.20;;;2.00;;
68365;SDS011;55283;51.466;5.478;2023-05-07T14:42:18;1.70;;;1.60;;
68365;SDS011;55283;51.466;5.478;2023-05-07T14:44:46;1.83;;;1.73;;
68365;SDS011;55283;51.466;5.478;2023-05-07T14:47:13;2.00;;;1.80;;
68365;SDS011;55283;51.466;5.478;2023-05-07T14:49:40;1.80;;;1.70;;
68365;SDS011;55283;51.466;5.478;2023-05-07T14:52:08;2.10;;;1.90;;
68365;SDS011;55283;51.466;5.478;2023-05-07T14:54:34;2.00;;;1.90;;
68365;SDS011;55283;51.466;5.478;2023-05-07T14:57:02;3.17;;;1.80;;
68365;SDS011;55283;51.466;5.478;2023-05-07T14:59:28;2.00;;;1.90;;